sensor_id;sensor_type;location;lat;lon;timestamp;P1;durP1;ratioP1;P2;durP2;ratioP2
5967;SDS011;3010;51.028;4.170;2022-12-07T00:01:10;33.20;;;23.93;;
5967;SDS011;3010;51.028;4.170;2022-12-07T00:03:35;33.67;;;22.77;;
5967;SDS011;3010;51.028;4.170;2022-12-07T00:06:04;32.20;;;22.67;;
5967;SDS011;3010;51.028;4.170;2022-12-07T00:08:30;36.57;;;23.13;;
5967;SDS011;3010;51.028;4.170;2022-12-07T00:11:00;35.50;;;24.17;;
5967;SDS011;3010;51.028;4.170;2022-12-07T00:13:29;29.83;;;22.57;;
5967;SDS011;3010;51.028;4.170;2022-12-07T00:15:55;32.87;;;22.20;;
5967;SDS011;3010;51.028;4.170;2022-12-07T00:18:22;36.27;;;22.20;;
5967;SDS011;3010;51.028;4.170;2022-12-07T00:20:48;37.70;;;22.00;;
5967;SDS011;3010;51.028;4.170;2022-12-07T00:23:15;31.13;;;22.47;;
5967;SDS011;3010;51.028;4.170;2022-12-07T00:25:42;32.63;;;22.10;;
5967;SDS011;3010;51.028;4.170;2022-12-07T00:28:08;31.10;;;21.23;;
5967;SDS011;3010;51.028;4.170;2022-12-07T00:30:35;31.47;;;21.43;;
5967;SDS011;3010;51.028;4.170;2022-12-07T00:33:01;38.35;;;28.92;;
5967;SDS011;3010;51.028;4.170;2022-12-07T00:35:28;35.60;;;24.73;;
5967;SDS011;3010;51.028;4.170;2022-12-07T00:37:55;39.73;;;24.33;;
5967;SDS011;3010;51.028;4.170;2022-12-07T00:40:21;37.30;;;24.53;;
5967;SDS011;3010;51.028;4.170;2022-12-07T00:42:48;42.97;;;31.00;;
5967;SDS011;3010;51.028;4.170;2022-12-07T00:45:14;36.47;;;25.13;;
5967;SDS011;3010;51.028;4.170;2022-12-07T00:47:41;34.93;;;24.13;;
5967;SDS011;3010;51.028;4.170;2022-12-07T00:50:08;41.28;;;29.52;;
5967;SDS011;3010;51.028;4.170;2022-12-07T00:52:34;36.00;;;25.40;;
5967;SDS011;3010;51.028;4.170;2022-12-07T00:55:01;35.47;;;24.37;;
5967;SDS011;3010;51.028;4.170;2022-12-07T00:57:27;35.37;;;22.63;;
5967;SDS011;3010;51.028;4.170;2022-12-07T00:59:54;33.47;;;23.63;;
5967;SDS011;3010;51.028;4.170;2022-12-07T01:02:21;40.53;;;22.90;;
5967;SDS011;3010;51.028;4.170;2022-12-07T01:04:47;36.13;;;23.07;;
5967;SDS011;3010;51.028;4.170;2022-12-07T01:07:14;36.10;;;22.43;;
5967;SDS011;3010;51.028;4.170;2022-12-07T01:09:40;34.30;;;23.53;;
5967;SDS011;3010;51.028;4.170;2022-12-07T01:12:07;36.60;;;22.47;;
5967;SDS011;3010;51.028;4.170;2022-12-07T01:14:33;34.27;;;21.77;;
5967;SDS011;3010;51.028;4.170;2022-12-07T01:17:00;31.00;;;20.73;;
5967;SDS011;3010;51.028;4.170;2022-12-07T01:19:27;34.90;;;21.17;;
5967;SDS011;3010;51.028;4.170;2022-12-07T01:21:53;29.97;;;20.40;;
5967;SDS011;3010;51.028;4.170;2022-12-07T01:24:20;35.23;;;21.63;;
5967;SDS011;3010;51.028;4.170;2022-12-07T01:26:48;43.60;;;30.20;;
5967;SDS011;3010;51.028;4.170;2022-12-07T01:29:13;44.83;;;29.30;;
5967;SDS011;3010;51.028;4.170;2022-12-07T01:31:39;41.90;;;30.77;;
5967;SDS011;3010;51.028;4.170;2022-12-07T01:34:06;41.20;;;29.03;;
5967;SDS011;3010;51.028;4.170;2022-12-07T01:36:34;43.15;;;30.42;;
5967;SDS011;3010;51.028;4.170;2022-12-07T01:39:00;32.47;;;21.87;;
5967;SDS011;3010;51.028;4.170;2022-12-07T01:41:28;37.80;;;26.80;;
5967;SDS011;3010;51.028;4.170;2022-12-07T01:46:44;34.57;;;21.50;;
5967;SDS011;3010;51.028;4.170;2022-12-07T01:49:14;27.73;;;20.10;;
5967;SDS011;3010;51.028;4.170;2022-12-07T01:51:37;57.37;;;39.43;;
5967;SDS011;3010;51.028;4.170;2022-12-07T01:54:03;68.37;;;44.43;;
5967;SDS011;3010;51.028;4.170;2022-12-07T01:56:30;30.00;;;20.03;;
5967;SDS011;3010;51.028;4.170;2022-12-07T01:58:57;39.97;;;29.50;;
5967;SDS011;3010;51.028;4.170;2022-12-07T02:01:23;34.77;;;23.70;;
5967;SDS011;3010;51.028;4.170;2022-12-07T02:03:50;29.30;;;21.93;;
5967;SDS011;3010;51.028;4.170;2022-12-07T02:06:17;34.33;;;22.17;;
5967;SDS011;3010;51.028;4.170;2022-12-07T02:08:43;46.60;;;30.15;;
5967;SDS011;3010;51.028;4.170;2022-12-07T02:11:10;44.70;;;31.23;;
5967;SDS011;3010;51.028;4.170;2022-12-07T02:13:37;43.00;;;30.45;;
5967;SDS011;3010;51.028;4.170;2022-12-07T02:18:42;36.03;;;21.97;;
5967;SDS011;3010;51.028;4.170;2022-12-07T02:21:10;33.70;;;21.90;;
5967;SDS011;3010;51.028;4.170;2022-12-07T02:23:41;30.87;;;20.70;;
5967;SDS011;3010;51.028;4.170;2022-12-07T02:32:08;29.07;;;20.07;;
5967;SDS011;3010;51.028;4.170;2022-12-07T02:37:29;34.33;;;21.07;;
5967;SDS011;3010;51.028;4.170;2022-12-07T02:39:55;29.13;;;20.30;;
5967;SDS011;3010;51.028;4.170;2022-12-07T02:42:23;30.00;;;19.53;;
5967;SDS011;3010;51.028;4.170;2022-12-07T02:44:46;31.00;;;20.23;;
5967;SDS011;3010;51.028;4.170;2022-12-07T02:47:13;32.00;;;20.07;;
5967;SDS011;3010;51.028;4.170;2022-12-07T02:49:39;34.40;;;20.20;;
5967;SDS011;3010;51.028;4.170;2022-12-07T02:52:06;39.08;;;26.15;;
5967;SDS011;3010;51.028;4.170;2022-12-07T02:54:33;28.23;;;19.83;;
5967;SDS011;3010;51.028;4.170;2022-12-07T02:57:02;36.70;;;24.77;;
5967;SDS011;3010;51.028;4.170;2022-12-07T02:59:32;36.47;;;20.60;;
5967;SDS011;3010;51.028;4.170;2022-12-07T03:08:01;37.35;;;23.55;;
5967;SDS011;3010;51.028;4.170;2022-12-07T03:12:31;41.50;;;25.88;;
5967;SDS011;3010;51.028;4.170;2022-12-07T03:15:10;29.20;;;19.30;;
5967;SDS011;3010;51.028;4.170;2022-12-07T03:17:34;30.70;;;18.40;;
5967;SDS011;3010;51.028;4.170;2022-12-07T03:20:02;29.03;;;17.90;;
5967;SDS011;3010;51.028;4.170;2022-12-07T03:22:28;31.37;;;17.67;;
5967;SDS011;3010;51.028;4.170;2022-12-07T03:24:55;28.30;;;16.67;;
5967;SDS011;3010;51.028;4.170;2022-12-07T03:27:31;30.57;;;17.17;;
5967;SDS011;3010;51.028;4.170;2022-12-07T03:29:54;34.72;;;23.30;;
5967;SDS011;3010;51.028;4.170;2022-12-07T03:32:35;39.60;;;23.83;;
5967;SDS011;3010;51.028;4.170;2022-12-07T03:35:11;29.43;;;18.20;;
5967;SDS011;3010;51.028;4.170;2022-12-07T03:37:49;28.10;;;16.97;;
5967;SDS011;3010;51.028;4.170;2022-12-07T03:40:13;23.57;;;16.20;;
5967;SDS011;3010;51.028;4.170;2022-12-07T03:42:56;33.58;;;22.17;;
5967;SDS011;3010;51.028;4.170;2022-12-07T03:45:23;32.60;;;22.25;;
5967;SDS011;3010;51.028;4.170;2022-12-07T03:47:54;25.10;;;16.43;;
5967;SDS011;3010;51.028;4.170;2022-12-07T03:53:34;28.17;;;15.40;;
5967;SDS011;3010;51.028;4.170;2022-12-07T03:55:42;25.90;;;16.23;;
5967;SDS011;3010;51.028;4.170;2022-12-07T03:58:12;25.87;;;16.60;;
5967;SDS011;3010;51.028;4.170;2022-12-07T04:00:38;25.50;;;15.43;;
5967;SDS011;3010;51.028;4.170;2022-12-07T04:03:04;26.83;;;15.47;;
5967;SDS011;3010;51.028;4.170;2022-12-07T04:05:31;22.60;;;14.73;;
5967;SDS011;3010;51.028;4.170;2022-12-07T04:07:57;22.67;;;15.30;;
5967;SDS011;3010;51.028;4.170;2022-12-07T04:10:24;33.22;;;22.30;;
5967;SDS011;3010;51.028;4.170;2022-12-07T04:12:50;20.20;;;15.33;;
5967;SDS011;3010;51.028;4.170;2022-12-07T04:15:17;25.97;;;15.67;;
5967;SDS011;3010;51.028;4.170;2022-12-07T04:17:43;24.63;;;15.37;;
5967;SDS011;3010;51.028;4.170;2022-12-07T04:20:10;23.90;;;16.13;;
5967;SDS011;3010;51.028;4.170;2022-12-07T04:22:37;23.93;;;15.47;;
5967;SDS011;3010;51.028;4.170;2022-12-07T04:25:04;24.80;;;15.00;;
5967;SDS011;3010;51.028;4.170;2022-12-07T04:27:30;27.02;;;19.70;;
5967;SDS011;3010;51.028;4.170;2022-12-07T04:29:57;24.70;;;16.10;;
5967;SDS011;3010;51.028;4.170;2022-12-07T04:32:23;25.27;;;15.40;;
5967;SDS011;3010;51.028;4.170;2022-12-07T04:34:50;21.90;;;15.30;;
5967;SDS011;3010;51.028;4.170;2022-12-07T04:37:17;25.60;;;14.63;;
5967;SDS011;3010;51.028;4.170;2022-12-07T04:39:43;18.70;;;14.33;;
5967;SDS011;3010;51.028;4.170;2022-12-07T04:42:13;20.47;;;14.53;;
5967;SDS011;3010;51.028;4.170;2022-12-07T04:44:39;22.43;;;14.87;;
5967;SDS011;3010;51.028;4.170;2022-12-07T04:47:09;19.53;;;14.57;;
5967;SDS011;3010;51.028;4.170;2022-12-07T04:49:32;23.17;;;14.27;;
5967;SDS011;3010;51.028;4.170;2022-12-07T04:51:59;20.93;;;14.47;;
5967;SDS011;3010;51.028;4.170;2022-12-07T04:54:26;20.93;;;14.67;;
5967;SDS011;3010;51.028;4.170;2022-12-07T04:56:52;28.00;;;15.57;;
5967;SDS011;3010;51.028;4.170;2022-12-07T04:59:19;26.43;;;15.23;;
5967;SDS011;3010;51.028;4.170;2022-12-07T05:01:45;24.57;;;16.00;;
5967;SDS011;3010;51.028;4.170;2022-12-07T05:04:12;27.57;;;16.53;;
5967;SDS011;3010;51.028;4.170;2022-12-07T05:06:39;25.07;;;17.10;;
5967;SDS011;3010;51.028;4.170;2022-12-07T05:09:05;27.63;;;17.73;;
5967;SDS011;3010;51.028;4.170;2022-12-07T05:11:32;27.37;;;17.80;;
5967;SDS011;3010;51.028;4.170;2022-12-07T05:14:17;40.87;;;26.23;;
5967;SDS011;3010;51.028;4.170;2022-12-07T05:16:41;40.83;;;26.95;;
5967;SDS011;3010;51.028;4.170;2022-12-07T05:19:07;35.97;;;21.23;;
5967;SDS011;3010;51.028;4.170;2022-12-07T05:21:34;49.88;;;27.90;;
5967;SDS011;3010;51.028;4.170;2022-12-07T05:24:00;34.20;;;22.20;;
5967;SDS011;3010;51.028;4.170;2022-12-07T05:26:27;40.20;;;27.95;;
5967;SDS011;3010;51.028;4.170;2022-12-07T05:28:54;35.03;;;21.27;;
5967;SDS011;3010;51.028;4.170;2022-12-07T05:31:20;41.08;;;27.85;;
5967;SDS011;3010;51.028;4.170;2022-12-07T05:33:46;36.03;;;22.80;;
5967;SDS011;3010;51.028;4.170;2022-12-07T05:36:13;32.37;;;20.17;;
5967;SDS011;3010;51.028;4.170;2022-12-07T05:38:40;35.20;;;21.37;;
5967;SDS011;3010;51.028;4.170;2022-12-07T05:41:06;34.27;;;21.43;;
5967;SDS011;3010;51.028;4.170;2022-12-07T05:43:33;39.07;;;22.73;;
5967;SDS011;3010;51.028;4.170;2022-12-07T05:45:59;30.70;;;21.73;;
5967;SDS011;3010;51.028;4.170;2022-12-07T05:48:26;33.07;;;20.47;;
5967;SDS011;3010;51.028;4.170;2022-12-07T05:50:53;45.58;;;27.25;;
5967;SDS011;3010;51.028;4.170;2022-12-07T05:53:19;35.20;;;22.37;;
5967;SDS011;3010;51.028;4.170;2022-12-07T05:55:46;35.13;;;21.17;;
5967;SDS011;3010;51.028;4.170;2022-12-07T05:58:12;36.23;;;20.57;;
5967;SDS011;3010;51.028;4.170;2022-12-07T06:00:57;34.10;;;20.00;;
5967;SDS011;3010;51.028;4.170;2022-12-07T06:03:24;42.35;;;28.23;;
5967;SDS011;3010;51.028;4.170;2022-12-07T06:05:51;37.27;;;22.63;;
5967;SDS011;3010;51.028;4.170;2022-12-07T06:08:17;33.23;;;20.83;;
5967;SDS011;3010;51.028;4.170;2022-12-07T06:10:44;38.67;;;21.17;;
5967;SDS011;3010;51.028;4.170;2022-12-07T06:13:10;44.33;;;28.10;;
5967;SDS011;3010;51.028;4.170;2022-12-07T06:15:37;38.77;;;23.20;;
5967;SDS011;3010;51.028;4.170;2022-12-07T06:18:03;45.83;;;27.65;;
5967;SDS011;3010;51.028;4.170;2022-12-07T06:20:30;38.00;;;22.87;;
5967;SDS011;3010;51.028;4.170;2022-12-07T06:22:57;46.20;;;28.38;;
5967;SDS011;3010;51.028;4.170;2022-12-07T06:25:23;36.60;;;21.77;;
5967;SDS011;3010;51.028;4.170;2022-12-07T06:27:50;48.87;;;26.42;;
5967;SDS011;3010;51.028;4.170;2022-12-07T06:30:16;30.00;;;18.07;;
5967;SDS011;3010;51.028;4.170;2022-12-07T06:32:43;26.53;;;17.83;;
5967;SDS011;3010;51.028;4.170;2022-12-07T06:35:09;26.90;;;16.93;;
5967;SDS011;3010;51.028;4.170;2022-12-07T06:37:36;21.07;;;15.80;;
5967;SDS011;3010;51.028;4.170;2022-12-07T06:40:03;24.33;;;15.37;;
5967;SDS011;3010;51.028;4.170;2022-12-07T06:42:29;26.87;;;18.17;;
5967;SDS011;3010;51.028;4.170;2022-12-07T06:44:56;41.92;;;27.33;;
5967;SDS011;3010;51.028;4.170;2022-12-07T06:47:22;40.07;;;23.37;;
5967;SDS011;3010;51.028;4.170;2022-12-07T06:49:49;35.83;;;22.50;;
5967;SDS011;3010;51.028;4.170;2022-12-07T06:52:16;32.37;;;21.80;;
5967;SDS011;3010;51.028;4.170;2022-12-07T06:54:42;32.97;;;22.17;;
5967;SDS011;3010;51.028;4.170;2022-12-07T06:57:09;39.50;;;24.40;;
5967;SDS011;3010;51.028;4.170;2022-12-07T06:59:35;30.87;;;21.43;;
5967;SDS011;3010;51.028;4.170;2022-12-07T07:02:02;34.47;;;23.37;;
5967;SDS011;3010;51.028;4.170;2022-12-07T07:04:29;44.37;;;27.27;;
5967;SDS011;3010;51.028;4.170;2022-12-07T07:06:55;36.53;;;22.80;;
5967;SDS011;3010;51.028;4.170;2022-12-07T07:09:22;38.93;;;22.83;;
5967;SDS011;3010;51.028;4.170;2022-12-07T07:11:48;49.28;;;31.75;;
5967;SDS011;3010;51.028;4.170;2022-12-07T07:14:15;49.73;;;24.90;;
5967;SDS011;3010;51.028;4.170;2022-12-07T07:16:41;45.60;;;27.62;;
5967;SDS011;3010;51.028;4.170;2022-12-07T07:19:08;33.50;;;20.73;;
5967;SDS011;3010;51.028;4.170;2022-12-07T07:21:36;36.30;;;18.77;;
5967;SDS011;3010;51.028;4.170;2022-12-07T07:24:01;32.27;;;19.70;;
5967;SDS011;3010;51.028;4.170;2022-12-07T07:26:28;39.33;;;24.90;;
5967;SDS011;3010;51.028;4.170;2022-12-07T07:28:54;36.63;;;20.17;;
5967;SDS011;3010;51.028;4.170;2022-12-07T07:31:21;26.43;;;17.63;;
5967;SDS011;3010;51.028;4.170;2022-12-07T07:33:48;31.33;;;18.23;;
5967;SDS011;3010;51.028;4.170;2022-12-07T07:36:14;26.60;;;16.97;;
5967;SDS011;3010;51.028;4.170;2022-12-07T07:38:41;31.23;;;16.33;;
5967;SDS011;3010;51.028;4.170;2022-12-07T07:41:07;28.40;;;17.33;;
5967;SDS011;3010;51.028;4.170;2022-12-07T07:43:34;29.53;;;18.20;;
5967;SDS011;3010;51.028;4.170;2022-12-07T07:46:01;29.10;;;17.70;;
5967;SDS011;3010;51.028;4.170;2022-12-07T07:48:27;31.77;;;17.33;;
5967;SDS011;3010;51.028;4.170;2022-12-07T07:50:54;31.23;;;18.23;;
5967;SDS011;3010;51.028;4.170;2022-12-07T07:53:20;29.70;;;17.93;;
5967;SDS011;3010;51.028;4.170;2022-12-07T07:55:50;27.33;;;17.33;;
5967;SDS011;3010;51.028;4.170;2022-12-07T07:58:19;37.53;;;16.80;;
5967;SDS011;3010;51.028;4.170;2022-12-07T08:00:45;29.93;;;17.53;;
5967;SDS011;3010;51.028;4.170;2022-12-07T08:03:12;31.00;;;17.90;;
5967;SDS011;3010;51.028;4.170;2022-12-07T08:05:39;31.67;;;18.37;;
5967;SDS011;3010;51.028;4.170;2022-12-07T08:08:05;34.50;;;18.73;;
5967;SDS011;3010;51.028;4.170;2022-12-07T08:10:32;32.53;;;19.00;;
5967;SDS011;3010;51.028;4.170;2022-12-07T08:12:58;39.75;;;24.90;;
5967;SDS011;3010;51.028;4.170;2022-12-07T08:15:38;38.00;;;21.50;;
5967;SDS011;3010;51.028;4.170;2022-12-07T08:18:04;31.47;;;20.67;;
5967;SDS011;3010;51.028;4.170;2022-12-07T08:20:30;35.63;;;21.03;;
5967;SDS011;3010;51.028;4.170;2022-12-07T08:22:57;45.07;;;21.37;;
5967;SDS011;3010;51.028;4.170;2022-12-07T08:25:24;34.47;;;19.37;;
5967;SDS011;3010;51.028;4.170;2022-12-07T08:27:50;42.20;;;21.43;;
5967;SDS011;3010;51.028;4.170;2022-12-07T08:30:17;38.90;;;24.07;;
5967;SDS011;3010;51.028;4.170;2022-12-07T08:32:46;38.17;;;25.60;;
5967;SDS011;3010;51.028;4.170;2022-12-07T08:35:13;57.47;;;33.83;;
5967;SDS011;3010;51.028;4.170;2022-12-07T08:37:39;66.90;;;40.47;;
5967;SDS011;3010;51.028;4.170;2022-12-07T08:40:06;55.43;;;34.27;;
5967;SDS011;3010;51.028;4.170;2022-12-07T08:42:32;42.80;;;27.83;;
5967;SDS011;3010;51.028;4.170;2022-12-07T08:45:09;33.23;;;22.17;;
5967;SDS011;3010;51.028;4.170;2022-12-07T08:47:36;34.93;;;20.27;;
5967;SDS011;3010;51.028;4.170;2022-12-07T08:50:01;29.40;;;19.70;;
5967;SDS011;3010;51.028;4.170;2022-12-07T08:52:28;29.00;;;18.87;;
5967;SDS011;3010;51.028;4.170;2022-12-07T08:54:54;31.50;;;19.70;;
5967;SDS011;3010;51.028;4.170;2022-12-07T08:57:21;30.17;;;19.00;;
5967;SDS011;3010;51.028;4.170;2022-12-07T08:59:48;30.20;;;18.80;;
5967;SDS011;3010;51.028;4.170;2022-12-07T09:02:14;34.30;;;19.20;;
5967;SDS011;3010;51.028;4.170;2022-12-07T09:04:41;37.70;;;19.67;;
5967;SDS011;3010;51.028;4.170;2022-12-07T09:07:07;35.17;;;19.07;;
5967;SDS011;3010;51.028;4.170;2022-12-07T09:09:34;32.07;;;20.17;;
5967;SDS011;3010;51.028;4.170;2022-12-07T09:12:01;31.63;;;19.80;;
5967;SDS011;3010;51.028;4.170;2022-12-07T09:14:27;31.50;;;19.77;;
5967;SDS011;3010;51.028;4.170;2022-12-07T09:16:54;32.30;;;19.70;;
5967;SDS011;3010;51.028;4.170;2022-12-07T09:19:20;32.63;;;18.90;;
5967;SDS011;3010;51.028;4.170;2022-12-07T09:21:47;35.50;;;19.27;;
5967;SDS011;3010;51.028;4.170;2022-12-07T09:24:13;45.22;;;25.58;;
5967;SDS011;3010;51.028;4.170;2022-12-07T09:26:40;33.43;;;20.10;;
5967;SDS011;3010;51.028;4.170;2022-12-07T09:29:07;39.03;;;24.67;;
5967;SDS011;3010;51.028;4.170;2022-12-07T09:31:35;36.77;;;20.60;;
5967;SDS011;3010;51.028;4.170;2022-12-07T09:34:00;39.97;;;26.37;;
5967;SDS011;3010;51.028;4.170;2022-12-07T09:36:27;34.83;;;22.67;;
5967;SDS011;3010;51.028;4.170;2022-12-07T09:38:53;34.47;;;22.10;;
5967;SDS011;3010;51.028;4.170;2022-12-07T09:41:20;45.22;;;28.62;;
5967;SDS011;3010;51.028;4.170;2022-12-07T09:43:46;36.90;;;21.70;;
5967;SDS011;3010;51.028;4.170;2022-12-07T09:46:13;32.23;;;19.27;;
5967;SDS011;3010;51.028;4.170;2022-12-07T09:48:39;36.20;;;18.50;;
5967;SDS011;3010;51.028;4.170;2022-12-07T09:51:13;25.50;;;17.80;;
5967;SDS011;3010;51.028;4.170;2022-12-07T09:53:41;30.17;;;18.63;;
5967;SDS011;3010;51.028;4.170;2022-12-07T09:56:09;27.33;;;17.77;;
5967;SDS011;3010;51.028;4.170;2022-12-07T09:58:34;26.20;;;17.23;;
5967;SDS011;3010;51.028;4.170;2022-12-07T10:01:08;25.57;;;16.43;;
5967;SDS011;3010;51.028;4.170;2022-12-07T10:03:28;26.63;;;16.20;;
5967;SDS011;3010;51.028;4.170;2022-12-07T10:05:54;30.53;;;16.17;;
5967;SDS011;3010;51.028;4.170;2022-12-07T10:08:21;26.63;;;15.77;;
5967;SDS011;3010;51.028;4.170;2022-12-07T10:10:50;24.07;;;15.10;;
5967;SDS011;3010;51.028;4.170;2022-12-07T10:13:20;29.80;;;17.27;;
5967;SDS011;3010;51.028;4.170;2022-12-07T10:16:05;30.20;;;16.63;;
5967;SDS011;3010;51.028;4.170;2022-12-07T10:18:32;33.65;;;20.45;;
5967;SDS011;3010;51.028;4.170;2022-12-07T10:23:58;26.45;;;18.15;;
5967;SDS011;3010;51.028;4.170;2022-12-07T10:29:13;22.93;;;15.40;;
5967;SDS011;3010;51.028;4.170;2022-12-07T10:31:27;32.70;;;23.17;;
5967;SDS011;3010;51.028;4.170;2022-12-07T10:33:55;43.83;;;20.93;;
5967;SDS011;3010;51.028;4.170;2022-12-07T10:36:21;35.05;;;22.67;;
5967;SDS011;3010;51.028;4.170;2022-12-07T10:38:48;27.83;;;18.10;;
5967;SDS011;3010;51.028;4.170;2022-12-07T10:41:13;34.35;;;20.62;;
5967;SDS011;3010;51.028;4.170;2022-12-07T10:43:51;24.33;;;16.13;;
5967;SDS011;3010;51.028;4.170;2022-12-07T10:51:45;21.07;;;14.37;;
5967;SDS011;3010;51.028;4.170;2022-12-07T11:05:06;20.97;;;12.70;;
5967;SDS011;3010;51.028;4.170;2022-12-07T11:09:57;22.10;;;13.60;;
5967;SDS011;3010;51.028;4.170;2022-12-07T11:12:31;19.10;;;12.73;;
5967;SDS011;3010;51.028;4.170;2022-12-07T11:28:29;13.90;;;9.40;;
5967;SDS011;3010;51.028;4.170;2022-12-07T11:34:05;15.30;;;9.32;;
5967;SDS011;3010;51.028;4.170;2022-12-07T11:36:40;11.03;;;7.70;;
5967;SDS011;3010;51.028;4.170;2022-12-07T11:39:20;10.57;;;8.30;;
5967;SDS011;3010;51.028;4.170;2022-12-07T11:41:42;12.20;;;7.57;;
5967;SDS011;3010;51.028;4.170;2022-12-07T11:47:02;11.10;;;6.10;;
5967;SDS011;3010;51.028;4.170;2022-12-07T11:49:27;10.07;;;5.87;;
5967;SDS011;3010;51.028;4.170;2022-12-07T11:52:11;10.93;;;6.50;;
5967;SDS011;3010;51.028;4.170;2022-12-07T11:54:39;10.37;;;5.83;;
5967;SDS011;3010;51.028;4.170;2022-12-07T11:57:04;15.83;;;5.83;;
5967;SDS011;3010;51.028;4.170;2022-12-07T11:59:31;11.38;;;6.80;;
5967;SDS011;3010;51.028;4.170;2022-12-07T12:01:58;8.67;;;4.97;;
5967;SDS011;3010;51.028;4.170;2022-12-07T12:04:34;7.23;;;4.97;;
5967;SDS011;3010;51.028;4.170;2022-12-07T12:07:15;7.17;;;4.10;;
5967;SDS011;3010;51.028;4.170;2022-12-07T12:09:48;8.50;;;4.60;;
5967;SDS011;3010;51.028;4.170;2022-12-07T12:20:32;6.73;;;4.47;;
5967;SDS011;3010;51.028;4.170;2022-12-07T12:25:40;8.52;;;4.90;;
5967;SDS011;3010;51.028;4.170;2022-12-07T12:28:06;8.83;;;3.97;;
5967;SDS011;3010;51.028;4.170;2022-12-07T12:30:36;5.33;;;3.70;;
5967;SDS011;3010;51.028;4.170;2022-12-07T12:33:05;5.13;;;3.63;;
5967;SDS011;3010;51.028;4.170;2022-12-07T12:35:33;8.23;;;3.97;;
5967;SDS011;3010;51.028;4.170;2022-12-07T12:40:46;5.07;;;4.07;;
5967;SDS011;3010;51.028;4.170;2022-12-07T12:43:58;4.43;;;3.70;;
5967;SDS011;3010;51.028;4.170;2022-12-07T12:51:41;9.15;;;4.62;;
5967;SDS011;3010;51.028;4.170;2022-12-07T12:54:56;5.00;;;3.87;;
5967;SDS011;3010;51.028;4.170;2022-12-07T12:56:42;4.60;;;3.57;;
5967;SDS011;3010;51.028;4.170;2022-12-07T12:59:21;3.70;;;3.47;;
5967;SDS011;3010;51.028;4.170;2022-12-07T13:01:50;3.80;;;3.40;;
5967;SDS011;3010;51.028;4.170;2022-12-07T13:04:39;7.07;;;3.72;;
5967;SDS011;3010;51.028;4.170;2022-12-07T13:06:43;8.15;;;4.40;;
5967;SDS011;3010;51.028;4.170;2022-12-07T13:09:28;9.40;;;4.03;;
5967;SDS011;3010;51.028;4.170;2022-12-07T13:11:56;4.23;;;3.90;;
5967;SDS011;3010;51.028;4.170;2022-12-07T13:14:40;6.20;;;3.40;;
5967;SDS011;3010;51.028;4.170;2022-12-07T13:17:36;4.40;;;3.13;;
5967;SDS011;3010;51.028;4.170;2022-12-07T13:24:59;3.73;;;3.53;;
5967;SDS011;3010;51.028;4.170;2022-12-07T13:27:23;4.20;;;3.80;;
5967;SDS011;3010;51.028;4.170;2022-12-07T13:29:49;4.83;;;4.13;;
5967;SDS011;3010;51.028;4.170;2022-12-07T13:32:23;6.57;;;4.40;;
5967;SDS011;3010;51.028;4.170;2022-12-07T13:34:51;4.57;;;4.13;;
5967;SDS011;3010;51.028;4.170;2022-12-07T13:39:49;4.73;;;3.70;;
5967;SDS011;3010;51.028;4.170;2022-12-07T13:42:16;4.30;;;4.00;;
5967;SDS011;3010;51.028;4.170;2022-12-07T13:44:46;4.50;;;4.20;;
5967;SDS011;3010;51.028;4.170;2022-12-07T13:49:57;5.87;;;4.70;;
5967;SDS011;3010;51.028;4.170;2022-12-07T13:52:27;6.10;;;5.00;;
5967;SDS011;3010;51.028;4.170;2022-12-07T13:57:33;3.53;;;3.33;;
5967;SDS011;3010;51.028;4.170;2022-12-07T13:59:59;4.90;;;3.63;;
5967;SDS011;3010;51.028;4.170;2022-12-07T14:02:29;5.53;;;4.60;;
5967;SDS011;3010;51.028;4.170;2022-12-07T14:05:14;5.82;;;4.45;;
5967;SDS011;3010;51.028;4.170;2022-12-07T14:07:53;4.33;;;3.90;;
5967;SDS011;3010;51.028;4.170;2022-12-07T14:10:28;4.00;;;3.70;;
5967;SDS011;3010;51.028;4.170;2022-12-07T14:12:56;5.77;;;4.03;;
5967;SDS011;3010;51.028;4.170;2022-12-07T14:15:30;6.57;;;5.15;;
5967;SDS011;3010;51.028;4.170;2022-12-07T14:17:59;4.57;;;4.20;;
5967;SDS011;3010;51.028;4.170;2022-12-07T14:20:33;9.67;;;8.07;;
5967;SDS011;3010;51.028;4.170;2022-12-07T14:22:58;12.17;;;9.10;;
5967;SDS011;3010;51.028;4.170;2022-12-07T14:25:25;12.27;;;10.13;;
5967;SDS011;3010;51.028;4.170;2022-12-07T14:30:27;11.27;;;8.30;;
5967;SDS011;3010;51.028;4.170;2022-12-07T14:32:54;5.90;;;3.90;;
5967;SDS011;3010;51.028;4.170;2022-12-07T14:35:20;14.67;;;11.73;;
5967;SDS011;3010;51.028;4.170;2022-12-07T14:37:47;14.23;;;11.37;;
5967;SDS011;3010;51.028;4.170;2022-12-07T14:40:13;7.03;;;4.63;;
5967;SDS011;3010;51.028;4.170;2022-12-07T14:42:39;7.13;;;6.43;;
5967;SDS011;3010;51.028;4.170;2022-12-07T14:45:10;5.63;;;5.13;;
5967;SDS011;3010;51.028;4.170;2022-12-07T14:47:33;4.07;;;3.20;;
5967;SDS011;3010;51.028;4.170;2022-12-07T14:49:59;3.30;;;2.90;;
5967;SDS011;3010;51.028;4.170;2022-12-07T14:52:29;3.43;;;3.10;;
5967;SDS011;3010;51.028;4.170;2022-12-07T14:54:52;5.55;;;3.80;;
5967;SDS011;3010;51.028;4.170;2022-12-07T14:57:19;4.10;;;3.70;;
5967;SDS011;3010;51.028;4.170;2022-12-07T14:59:46;5.03;;;4.53;;
5967;SDS011;3010;51.028;4.170;2022-12-07T15:02:13;4.33;;;3.93;;
5967;SDS011;3010;51.028;4.170;2022-12-07T15:04:39;6.85;;;4.60;;
5967;SDS011;3010;51.028;4.170;2022-12-07T15:07:09;3.67;;;2.90;;
5967;SDS011;3010;51.028;4.170;2022-12-07T15:09:32;3.83;;;2.87;;
5967;SDS011;3010;51.028;4.170;2022-12-07T15:11:59;5.97;;;3.10;;
5967;SDS011;3010;51.028;4.170;2022-12-07T15:14:25;5.57;;;2.63;;
5967;SDS011;3010;51.028;4.170;2022-12-07T15:16:52;5.50;;;3.03;;
5967;SDS011;3010;51.028;4.170;2022-12-07T15:19:19;5.50;;;2.30;;
5967;SDS011;3010;51.028;4.170;2022-12-07T15:21:45;4.15;;;3.20;;
5967;SDS011;3010;51.028;4.170;2022-12-07T15:24:11;5.97;;;3.10;;
5967;SDS011;3010;51.028;4.170;2022-12-07T15:26:38;5.20;;;3.97;;
5967;SDS011;3010;51.028;4.170;2022-12-07T15:29:05;4.77;;;3.50;;
5967;SDS011;3010;51.028;4.170;2022-12-07T15:31:31;4.22;;;3.83;;
5967;SDS011;3010;51.028;4.170;2022-12-07T15:33:58;5.40;;;2.97;;
5967;SDS011;3010;51.028;4.170;2022-12-07T15:36:26;3.47;;;3.17;;
5967;SDS011;3010;51.028;4.170;2022-12-07T15:38:51;4.70;;;4.30;;
5967;SDS011;3010;51.028;4.170;2022-12-07T15:41:18;5.27;;;4.80;;
5967;SDS011;3010;51.028;4.170;2022-12-07T15:43:44;7.17;;;5.37;;
5967;SDS011;3010;51.028;4.170;2022-12-07T15:46:30;6.07;;;5.57;;
5967;SDS011;3010;51.028;4.170;2022-12-07T15:48:58;5.37;;;4.87;;
5967;SDS011;3010;51.028;4.170;2022-12-07T15:51:25;4.90;;;4.40;;
5967;SDS011;3010;51.028;4.170;2022-12-07T15:53:52;4.90;;;4.40;;
5967;SDS011;3010;51.028;4.170;2022-12-07T15:56:18;3.43;;;3.13;;
5967;SDS011;3010;51.028;4.170;2022-12-07T15:58:45;5.20;;;4.10;;
5967;SDS011;3010;51.028;4.170;2022-12-07T16:01:12;7.37;;;4.37;;
5967;SDS011;3010;51.028;4.170;2022-12-07T16:03:38;3.90;;;3.60;;
5967;SDS011;3010;51.028;4.170;2022-12-07T16:06:05;6.57;;;3.77;;
5967;SDS011;3010;51.028;4.170;2022-12-07T16:08:31;4.60;;;4.17;;
5967;SDS011;3010;51.028;4.170;2022-12-07T16:10:58;5.33;;;4.83;;
5967;SDS011;3010;51.028;4.170;2022-12-07T16:13:24;5.90;;;4.50;;
5967;SDS011;3010;51.028;4.170;2022-12-07T16:15:51;5.83;;;5.23;;
5967;SDS011;3010;51.028;4.170;2022-12-07T16:18:17;10.55;;;6.70;;
5967;SDS011;3010;51.028;4.170;2022-12-07T16:20:47;7.97;;;5.20;;
5967;SDS011;3010;51.028;4.170;2022-12-07T16:23:10;8.67;;;6.70;;
5967;SDS011;3010;51.028;4.170;2022-12-07T16:25:37;11.27;;;7.37;;
5967;SDS011;3010;51.028;4.170;2022-12-07T16:28:04;7.23;;;6.53;;
5967;SDS011;3010;51.028;4.170;2022-12-07T16:30:30;9.07;;;6.87;;
5967;SDS011;3010;51.028;4.170;2022-12-07T16:32:57;14.03;;;8.17;;
5967;SDS011;3010;51.028;4.170;2022-12-07T16:35:23;9.23;;;7.83;;
5967;SDS011;3010;51.028;4.170;2022-12-07T16:37:50;10.03;;;7.63;;
5967;SDS011;3010;51.028;4.170;2022-12-07T16:40:17;10.07;;;6.97;;
5967;SDS011;3010;51.028;4.170;2022-12-07T16:42:43;10.70;;;6.93;;